EZS1593 LSGG-EGNT
Flight info
| Callsign | EZS1593 |
|---|---|
| Flight time | N/A |
| Altitude | 36000 |
| Route | DIPIR1A/22 DIPIR T37 IBABA DCT TUTAX DCT OBURO DCT OKRIX DCT CLM DCT KOPOR DCT VESAN DCT RATUK DCT SOVAT L613 MAMUL UY250 RIMTO |
| Aircraft | A320/M-SDE3FGHIRWY/LB1 |
Departure
| Time | 2026-05-04 18:11 |
|---|---|
| Airport | Geneva International Airport (LSGG) |
Arrival
| Time | N/A |
|---|---|
| Airport | Newcastle International Airport (EGNT) |
| Time | Latitude | Longitude | Altitude | Speed | Heading |
|---|---|---|---|---|---|
| 2026-05-04 17:54 | 46.23525 | 6.10958 | 1393 ft | 0 kts | 135° |
| 2026-05-04 18:06 | 46.23521 | 6.10965 | 1404 ft | 3 kts | 135° |
| 2026-05-04 18:07 | 46.23492 | 6.11013 | 1395 ft | 10 kts | 116° |
| 2026-05-04 18:07 | 46.23511 | 6.11076 | 1404 ft | 12 kts | 44° |
| 2026-05-04 18:07 | 46.23582 | 6.11164 | 1392 ft | 13 kts | 17° |
| 2026-05-04 18:07 | 46.23657 | 6.11086 | 1387 ft | 15 kts | 315° |
| 2026-05-04 18:08 | 46.23748 | 6.11141 | 1380 ft | 20 kts | 54° |
| 2026-05-04 18:08 | 46.23858 | 6.11305 | 1376 ft | 24 kts | 46° |
| 2026-05-04 18:08 | 46.23983 | 6.11490 | 1372 ft | 27 kts | 45° |
| 2026-05-04 18:08 | 46.24123 | 6.11694 | 1366 ft | 30 kts | 45° |
| 2026-05-04 18:09 | 46.24414 | 6.12120 | 1369 ft | 26 kts | 45° |
| 2026-05-04 18:09 | 46.24671 | 6.12499 | 1365 ft | 29 kts | 46° |
| 2026-05-04 18:10 | 46.24820 | 6.12683 | 1363 ft | 27 kts | 21° |
| 2026-05-04 18:10 | 46.24976 | 6.12742 | 1369 ft | 15 kts | 357° |
| 2026-05-04 18:10 | 46.25012 | 6.12665 | 1372 ft | 8 kts | 241° |
| 2026-05-04 18:10 | 46.24973 | 6.12607 | 1372 ft | 10 kts | 225° |
| 2026-05-04 18:11 | 46.24778 | 6.12324 | 1372 ft | 76 kts | 225° |
| 2026-05-04 18:11 | 46.24258 | 6.11560 | 1374 ft | 135 kts | 225° |
| 2026-05-04 18:11 | 46.23491 | 6.10431 | 1493 ft | 168 kts | 226° |
| 2026-05-04 18:11 | 46.22689 | 6.09230 | 2138 ft | 166 kts | 226° |
| 2026-05-04 18:12 | 46.21882 | 6.08036 | 2816 ft | 168 kts | 225° |
| 2026-05-04 18:12 | 46.21024 | 6.06789 | 3219 ft | 184 kts | 224° |
| 2026-05-04 18:12 | 46.20084 | 6.05402 | 3565 ft | 202 kts | 224° |
| 2026-05-04 18:12 | 46.19042 | 6.03890 | 3786 ft | 229 kts | 223° |
| 2026-05-04 18:13 | 46.17838 | 6.02162 | 4199 ft | 251 kts | 223° |
| 2026-05-04 18:13 | 46.16586 | 6.00347 | 4996 ft | 257 kts | 223° |
| 2026-05-04 18:13 | 46.14104 | 5.96652 | 6828 ft | 259 kts | 225° |
| 2026-05-04 18:14 | 46.12982 | 5.94605 | 7673 ft | 264 kts | 240° |
| 2026-05-04 18:14 | 46.12451 | 5.92056 | 8439 ft | 272 kts | 265° |
| 2026-05-04 18:14 | 46.12780 | 5.89341 | 9233 ft | 282 kts | 292° |
| 2026-05-04 18:15 | 46.15868 | 5.85731 | 10583 ft | 311 kts | 336° |
| 2026-05-04 18:15 | 46.20160 | 5.83489 | 11405 ft | 341 kts | 338° |
| 2026-05-04 18:15 | 46.22422 | 5.82365 | 12122 ft | 346 kts | 339° |
| 2026-05-04 18:16 | 46.24705 | 5.81233 | 12882 ft | 348 kts | 338° |
| 2026-05-04 18:16 | 46.27005 | 5.80079 | 13645 ft | 351 kts | 338° |
| 2026-05-04 18:16 | 46.29326 | 5.78896 | 14310 ft | 355 kts | 337° |
| 2026-05-04 18:17 | 46.34032 | 5.76460 | 15521 ft | 364 kts | 337° |
| 2026-05-04 18:17 | 46.36427 | 5.75213 | 16118 ft | 368 kts | 337° |
| 2026-05-04 18:17 | 46.41317 | 5.72664 | 17293 ft | 378 kts | 336° |
| 2026-05-04 18:18 | 46.43809 | 5.71365 | 17884 ft | 381 kts | 336° |
| 2026-05-04 18:18 | 46.46315 | 5.70059 | 18477 ft | 385 kts | 336° |
| 2026-05-04 18:18 | 46.48848 | 5.68740 | 18988 ft | 389 kts | 336° |
| 2026-05-04 18:18 | 46.51379 | 5.67421 | 19475 ft | 393 kts | 336° |
| 2026-05-04 18:19 | 46.56593 | 5.64702 | 20442 ft | 403 kts | 336° |
| 2026-05-04 18:19 | 46.59248 | 5.63312 | 20899 ft | 408 kts | 336° |
| 2026-05-04 18:19 | 46.61925 | 5.61907 | 21378 ft | 412 kts | 336° |
| 2026-05-04 18:20 | 46.64638 | 5.60486 | 21869 ft | 416 kts | 336° |
| 2026-05-04 18:20 | 46.67338 | 5.58914 | 22362 ft | 417 kts | 329° |
| 2026-05-04 18:20 | 46.69884 | 5.56874 | 22865 ft | 419 kts | 326° |
| 2026-05-04 18:20 | 46.72437 | 5.54763 | 23327 ft | 423 kts | 326° |
| 2026-05-04 18:21 | 46.75014 | 5.52628 | 23740 ft | 427 kts | 326° |
| 2026-05-04 18:21 | 46.77573 | 5.50506 | 24123 ft | 430 kts | 326° |
| 2026-05-04 18:21 | 46.80216 | 5.48316 | 24537 ft | 433 kts | 326° |
| 2026-05-04 18:21 | 46.82816 | 5.46123 | 24926 ft | 434 kts | 322° |
| 2026-05-04 18:22 | 46.85188 | 5.43497 | 25305 ft | 430 kts | 312° |
| 2026-05-04 18:22 | 46.87228 | 5.40329 | 25682 ft | 426 kts | 302° |
| 2026-05-04 18:22 | 46.88859 | 5.36760 | 26048 ft | 421 kts | 293° |
| 2026-05-04 18:22 | 46.90063 | 5.32887 | 26411 ft | 417 kts | 284° |
| 2026-05-04 18:23 | 46.91112 | 5.28902 | 26800 ft | 422 kts | 289° |
| 2026-05-04 18:23 | 46.92557 | 5.25126 | 27155 ft | 430 kts | 300° |
| 2026-05-04 18:23 | 46.94461 | 5.21698 | 27505 ft | 439 kts | 310° |
| 2026-05-04 18:23 | 46.96731 | 5.18651 | 27851 ft | 444 kts | 314° |
| 2026-05-04 18:24 | 46.99038 | 5.15629 | 28196 ft | 446 kts | 313° |
| 2026-05-04 18:24 | 47.01342 | 5.12582 | 28534 ft | 448 kts | 313° |
| 2026-05-04 18:24 | 47.03658 | 5.09499 | 28863 ft | 450 kts | 313° |
| 2026-05-04 18:24 | 47.05980 | 5.06400 | 29183 ft | 452 kts | 313° |
| 2026-05-04 18:25 | 47.08310 | 5.03289 | 29492 ft | 454 kts | 313° |
| 2026-05-04 18:25 | 47.10655 | 5.00161 | 29792 ft | 456 kts | 313° |
| 2026-05-04 18:25 | 47.12980 | 4.97061 | 30065 ft | 458 kts | 313° |
| 2026-05-04 18:25 | 47.15342 | 4.93906 | 30340 ft | 460 kts | 313° |
| 2026-05-04 18:26 | 47.17714 | 4.90735 | 30604 ft | 461 kts | 313° |